sensor_id;sensor_type;location;lat;lon;timestamp;P1;durP1;ratioP1;P2;durP2;ratioP2
72286;SDS011;60221;45.696;16.076;2024-03-06T00:00:27;21.30;;;9.60;;
72286;SDS011;60221;45.696;16.076;2024-03-06T00:02:54;22.70;;;10.10;;
72286;SDS011;60221;45.696;16.076;2024-03-06T00:05:21;23.10;;;10.10;;
72286;SDS011;60221;45.696;16.076;2024-03-06T00:07:49;21.10;;;9.90;;
72286;SDS011;60221;45.696;16.076;2024-03-06T00:10:16;21.70;;;9.70;;
72286;SDS011;60221;45.696;16.076;2024-03-06T00:12:44;21.00;;;9.30;;
72286;SDS011;60221;45.696;16.076;2024-03-06T00:15:11;23.40;;;10.50;;
72286;SDS011;60221;45.696;16.076;2024-03-06T00:17:38;21.00;;;9.40;;
72286;SDS011;60221;45.696;16.076;2024-03-06T00:20:06;20.50;;;10.10;;
72286;SDS011;60221;45.696;16.076;2024-03-06T00:22:34;25.40;;;10.30;;
72286;SDS011;60221;45.696;16.076;2024-03-06T00:25:01;23.20;;;10.60;;
72286;SDS011;60221;45.696;16.076;2024-03-06T00:27:28;21.00;;;10.00;;
72286;SDS011;60221;45.696;16.076;2024-03-06T00:29:55;20.40;;;8.40;;
72286;SDS011;60221;45.696;16.076;2024-03-06T00:32:22;19.00;;;8.90;;
72286;SDS011;60221;45.696;16.076;2024-03-06T00:34:50;22.60;;;9.90;;
72286;SDS011;60221;45.696;16.076;2024-03-06T00:37:17;21.10;;;9.00;;
72286;SDS011;60221;45.696;16.076;2024-03-06T00:39:44;20.40;;;8.20;;
72286;SDS011;60221;45.696;16.076;2024-03-06T00:42:11;20.20;;;9.10;;
72286;SDS011;60221;45.696;16.076;2024-03-06T00:44:40;19.30;;;8.00;;
72286;SDS011;60221;45.696;16.076;2024-03-06T00:47:08;21.80;;;8.90;;
72286;SDS011;60221;45.696;16.076;2024-03-06T00:49:35;18.60;;;8.10;;
72286;SDS011;60221;45.696;16.076;2024-03-06T00:52:02;18.00;;;8.80;;
72286;SDS011;60221;45.696;16.076;2024-03-06T00:54:31;19.20;;;8.60;;
72286;SDS011;60221;45.696;16.076;2024-03-06T00:56:58;19.00;;;8.70;;
72286;SDS011;60221;45.696;16.076;2024-03-06T00:59:26;19.70;;;8.70;;
72286;SDS011;60221;45.696;16.076;2024-03-06T01:01:53;20.50;;;8.30;;
72286;SDS011;60221;45.696;16.076;2024-03-06T01:04:23;17.30;;;8.30;;
72286;SDS011;60221;45.696;16.076;2024-03-06T01:06:50;20.40;;;8.80;;
72286;SDS011;60221;45.696;16.076;2024-03-06T01:09:18;18.20;;;8.60;;
72286;SDS011;60221;45.696;16.076;2024-03-06T01:11:45;16.20;;;7.80;;
72286;SDS011;60221;45.696;16.076;2024-03-06T01:14:14;18.90;;;8.20;;
72286;SDS011;60221;45.696;16.076;2024-03-06T01:16:41;21.20;;;8.70;;
72286;SDS011;60221;45.696;16.076;2024-03-06T01:19:09;22.80;;;9.60;;
72286;SDS011;60221;45.696;16.076;2024-03-06T01:21:36;20.00;;;7.60;;
72286;SDS011;60221;45.696;16.076;2024-03-06T01:24:03;18.50;;;8.10;;
72286;SDS011;60221;45.696;16.076;2024-03-06T01:26:30;16.70;;;6.90;;
72286;SDS011;60221;45.696;16.076;2024-03-06T01:28:57;13.20;;;6.30;;
72286;SDS011;60221;45.696;16.076;2024-03-06T01:31:24;14.00;;;6.20;;
72286;SDS011;60221;45.696;16.076;2024-03-06T01:33:51;16.30;;;7.60;;
72286;SDS011;60221;45.696;16.076;2024-03-06T01:36:18;19.60;;;7.70;;
72286;SDS011;60221;45.696;16.076;2024-03-06T01:38:46;17.60;;;7.20;;
72286;SDS011;60221;45.696;16.076;2024-03-06T01:41:14;19.90;;;8.10;;
72286;SDS011;60221;45.696;16.076;2024-03-06T01:43:41;16.60;;;7.10;;
72286;SDS011;60221;45.696;16.076;2024-03-06T01:46:08;17.60;;;8.30;;
72286;SDS011;60221;45.696;16.076;2024-03-06T01:48:35;15.60;;;7.60;;
72286;SDS011;60221;45.696;16.076;2024-03-06T01:51:02;15.70;;;8.00;;
72286;SDS011;60221;45.696;16.076;2024-03-06T01:53:31;16.40;;;7.60;;
72286;SDS011;60221;45.696;16.076;2024-03-06T01:56:00;18.30;;;7.80;;
72286;SDS011;60221;45.696;16.076;2024-03-06T01:58:28;17.50;;;7.70;;
72286;SDS011;60221;45.696;16.076;2024-03-06T02:00:55;18.10;;;7.80;;
72286;SDS011;60221;45.696;16.076;2024-03-06T02:03:24;17.10;;;7.30;;
72286;SDS011;60221;45.696;16.076;2024-03-06T02:05:52;18.30;;;8.20;;
72286;SDS011;60221;45.696;16.076;2024-03-06T02:08:20;20.30;;;9.20;;
72286;SDS011;60221;45.696;16.076;2024-03-06T02:10:47;22.90;;;9.30;;
72286;SDS011;60221;45.696;16.076;2024-03-06T02:13:14;23.60;;;10.00;;
72286;SDS011;60221;45.696;16.076;2024-03-06T02:15:42;18.20;;;8.90;;
72286;SDS011;60221;45.696;16.076;2024-03-06T02:18:11;18.00;;;9.00;;
72286;SDS011;60221;45.696;16.076;2024-03-06T02:20:38;15.40;;;7.70;;
72286;SDS011;60221;45.696;16.076;2024-03-06T02:23:08;16.80;;;7.70;;
72286;SDS011;60221;45.696;16.076;2024-03-06T02:25:35;16.40;;;7.20;;
72286;SDS011;60221;45.696;16.076;2024-03-06T02:28:03;16.80;;;7.80;;
72286;SDS011;60221;45.696;16.076;2024-03-06T02:30:31;18.20;;;8.80;;
72286;SDS011;60221;45.696;16.076;2024-03-06T02:33:04;20.40;;;9.30;;
72286;SDS011;60221;45.696;16.076;2024-03-06T02:35:32;23.60;;;10.80;;
72286;SDS011;60221;45.696;16.076;2024-03-06T02:38:00;31.80;;;15.10;;
72286;SDS011;60221;45.696;16.076;2024-03-06T02:40:27;28.00;;;14.70;;
72286;SDS011;60221;45.696;16.076;2024-03-06T02:42:55;30.20;;;13.30;;
72286;SDS011;60221;45.696;16.076;2024-03-06T02:45:22;29.40;;;13.60;;
72286;SDS011;60221;45.696;16.076;2024-03-06T02:47:49;30.60;;;14.30;;
72286;SDS011;60221;45.696;16.076;2024-03-06T02:50:16;39.50;;;16.00;;
72286;SDS011;60221;45.696;16.076;2024-03-06T02:52:43;34.60;;;14.40;;
72286;SDS011;60221;45.696;16.076;2024-03-06T02:55:11;32.40;;;14.20;;
72286;SDS011;60221;45.696;16.076;2024-03-06T02:57:38;41.10;;;15.00;;
72286;SDS011;60221;45.696;16.076;2024-03-06T03:00:05;34.80;;;15.70;;
72286;SDS011;60221;45.696;16.076;2024-03-06T03:02:36;33.50;;;14.80;;
72286;SDS011;60221;45.696;16.076;2024-03-06T03:05:03;32.70;;;15.40;;
72286;SDS011;60221;45.696;16.076;2024-03-06T03:07:30;34.90;;;15.80;;
72286;SDS011;60221;45.696;16.076;2024-03-06T03:09:57;35.70;;;15.10;;
72286;SDS011;60221;45.696;16.076;2024-03-06T03:12:24;34.80;;;14.60;;
72286;SDS011;60221;45.696;16.076;2024-03-06T03:14:51;34.80;;;15.50;;
72286;SDS011;60221;45.696;16.076;2024-03-06T03:17:18;34.40;;;14.00;;
72286;SDS011;60221;45.696;16.076;2024-03-06T03:19:46;28.40;;;13.60;;
72286;SDS011;60221;45.696;16.076;2024-03-06T03:22:13;38.00;;;13.50;;
72286;SDS011;60221;45.696;16.076;2024-03-06T03:24:44;27.80;;;11.90;;
72286;SDS011;60221;45.696;16.076;2024-03-06T03:27:11;30.90;;;14.10;;
72286;SDS011;60221;45.696;16.076;2024-03-06T03:29:38;30.10;;;13.20;;
72286;SDS011;60221;45.696;16.076;2024-03-06T03:32:05;29.50;;;12.60;;
72286;SDS011;60221;45.696;16.076;2024-03-06T03:34:35;26.00;;;11.80;;
72286;SDS011;60221;45.696;16.076;2024-03-06T03:37:02;24.50;;;12.50;;
72286;SDS011;60221;45.696;16.076;2024-03-06T03:39:29;30.60;;;12.60;;
72286;SDS011;60221;45.696;16.076;2024-03-06T03:41:57;25.80;;;11.40;;
72286;SDS011;60221;45.696;16.076;2024-03-06T03:44:24;26.00;;;12.20;;
72286;SDS011;60221;45.696;16.076;2024-03-06T03:46:51;28.60;;;11.90;;
72286;SDS011;60221;45.696;16.076;2024-03-06T03:49:18;28.60;;;12.70;;
72286;SDS011;60221;45.696;16.076;2024-03-06T03:51:45;28.20;;;11.80;;
72286;SDS011;60221;45.696;16.076;2024-03-06T03:54:12;25.90;;;11.40;;
72286;SDS011;60221;45.696;16.076;2024-03-06T03:56:39;27.20;;;10.90;;
72286;SDS011;60221;45.696;16.076;2024-03-06T03:59:06;24.00;;;11.80;;
72286;SDS011;60221;45.696;16.076;2024-03-06T04:01:34;26.00;;;10.50;;
72286;SDS011;60221;45.696;16.076;2024-03-06T04:04:01;22.80;;;10.70;;
72286;SDS011;60221;45.696;16.076;2024-03-06T04:06:29;24.70;;;10.30;;
72286;SDS011;60221;45.696;16.076;2024-03-06T04:08:56;23.70;;;10.60;;
72286;SDS011;60221;45.696;16.076;2024-03-06T04:11:23;25.70;;;11.30;;
72286;SDS011;60221;45.696;16.076;2024-03-06T04:13:50;27.60;;;11.50;;
72286;SDS011;60221;45.696;16.076;2024-03-06T04:16:17;26.10;;;11.50;;
72286;SDS011;60221;45.696;16.076;2024-03-06T04:18:45;23.20;;;11.20;;
72286;SDS011;60221;45.696;16.076;2024-03-06T04:21:13;23.70;;;11.00;;
72286;SDS011;60221;45.696;16.076;2024-03-06T04:23:42;23.60;;;10.60;;
72286;SDS011;60221;45.696;16.076;2024-03-06T04:26:10;25.00;;;10.70;;
72286;SDS011;60221;45.696;16.076;2024-03-06T04:28:37;26.60;;;11.40;;
72286;SDS011;60221;45.696;16.076;2024-03-06T04:31:04;24.20;;;11.50;;
72286;SDS011;60221;45.696;16.076;2024-03-06T04:33:32;24.10;;;10.40;;
72286;SDS011;60221;45.696;16.076;2024-03-06T04:36:02;24.30;;;11.30;;
72286;SDS011;60221;45.696;16.076;2024-03-06T04:38:29;26.10;;;10.30;;
72286;SDS011;60221;45.696;16.076;2024-03-06T04:40:56;23.90;;;10.20;;
72286;SDS011;60221;45.696;16.076;2024-03-06T04:43:23;22.10;;;10.30;;
72286;SDS011;60221;45.696;16.076;2024-03-06T04:45:51;23.80;;;10.60;;
72286;SDS011;60221;45.696;16.076;2024-03-06T04:48:18;25.10;;;11.10;;
72286;SDS011;60221;45.696;16.076;2024-03-06T04:50:45;24.10;;;10.70;;
72286;SDS011;60221;45.696;16.076;2024-03-06T04:53:12;24.30;;;10.80;;
72286;SDS011;60221;45.696;16.076;2024-03-06T04:55:39;25.50;;;11.10;;
72286;SDS011;60221;45.696;16.076;2024-03-06T04:58:07;28.20;;;11.60;;
72286;SDS011;60221;45.696;16.076;2024-03-06T05:00:34;26.60;;;11.30;;
72286;SDS011;60221;45.696;16.076;2024-03-06T05:03:01;27.60;;;11.60;;
72286;SDS011;60221;45.696;16.076;2024-03-06T05:05:45;26.00;;;11.50;;
72286;SDS011;60221;45.696;16.076;2024-03-06T05:08:30;23.80;;;11.20;;
72286;SDS011;60221;45.696;16.076;2024-03-06T05:11:14;28.10;;;11.30;;
72286;SDS011;60221;45.696;16.076;2024-03-06T05:13:59;27.50;;;11.30;;
72286;SDS011;60221;45.696;16.076;2024-03-06T05:16:44;26.60;;;10.60;;
72286;SDS011;60221;45.696;16.076;2024-03-06T05:19:28;25.50;;;11.20;;
72286;SDS011;60221;45.696;16.076;2024-03-06T05:22:16;22.60;;;10.50;;
72286;SDS011;60221;45.696;16.076;2024-03-06T05:25:00;23.60;;;11.00;;
72286;SDS011;60221;45.696;16.076;2024-03-06T05:27:45;26.60;;;11.10;;
72286;SDS011;60221;45.696;16.076;2024-03-06T05:30:29;23.30;;;10.60;;
72286;SDS011;60221;45.696;16.076;2024-03-06T05:33:14;22.40;;;9.80;;
72286;SDS011;60221;45.696;16.076;2024-03-06T05:35:58;23.70;;;10.00;;
72286;SDS011;60221;45.696;16.076;2024-03-06T05:38:42;27.50;;;10.60;;
72286;SDS011;60221;45.696;16.076;2024-03-06T05:41:27;24.00;;;10.60;;
72286;SDS011;60221;45.696;16.076;2024-03-06T05:44:12;26.10;;;10.60;;
72286;SDS011;60221;45.696;16.076;2024-03-06T05:46:57;22.40;;;10.80;;
72286;SDS011;60221;45.696;16.076;2024-03-06T05:49:41;23.40;;;9.90;;
72286;SDS011;60221;45.696;16.076;2024-03-06T05:52:26;21.70;;;10.10;;
72286;SDS011;60221;45.696;16.076;2024-03-06T05:55:10;24.00;;;10.20;;
72286;SDS011;60221;45.696;16.076;2024-03-06T05:57:54;19.10;;;9.30;;
72286;SDS011;60221;45.696;16.076;2024-03-06T06:00:34;20.40;;;10.10;;
72286;SDS011;60221;45.696;16.076;2024-03-06T06:03:01;19.50;;;9.00;;
72286;SDS011;60221;45.696;16.076;2024-03-06T06:05:30;20.30;;;9.00;;
72286;SDS011;60221;45.696;16.076;2024-03-06T06:07:57;26.80;;;10.90;;
72286;SDS011;60221;45.696;16.076;2024-03-06T06:10:24;28.50;;;11.10;;
72286;SDS011;60221;45.696;16.076;2024-03-06T06:12:51;21.70;;;9.40;;
72286;SDS011;60221;45.696;16.076;2024-03-06T06:15:19;23.90;;;10.60;;
72286;SDS011;60221;45.696;16.076;2024-03-06T06:17:47;22.30;;;9.90;;
72286;SDS011;60221;45.696;16.076;2024-03-06T06:20:14;27.20;;;11.90;;
72286;SDS011;60221;45.696;16.076;2024-03-06T06:22:43;22.60;;;9.70;;
72286;SDS011;60221;45.696;16.076;2024-03-06T06:25:11;23.00;;;10.30;;
72286;SDS011;60221;45.696;16.076;2024-03-06T06:27:39;24.70;;;10.40;;
72286;SDS011;60221;45.696;16.076;2024-03-06T06:30:07;23.10;;;10.90;;
72286;SDS011;60221;45.696;16.076;2024-03-06T06:32:42;24.10;;;11.10;;
72286;SDS011;60221;45.696;16.076;2024-03-06T06:35:10;22.70;;;10.10;;
72286;SDS011;60221;45.696;16.076;2024-03-06T06:37:40;25.70;;;12.10;;
72286;SDS011;60221;45.696;16.076;2024-03-06T06:40:08;23.20;;;10.20;;
72286;SDS011;60221;45.696;16.076;2024-03-06T06:42:37;24.10;;;10.70;;
72286;SDS011;60221;45.696;16.076;2024-03-06T06:45:04;22.10;;;10.30;;
72286;SDS011;60221;45.696;16.076;2024-03-06T06:47:33;21.30;;;10.70;;
72286;SDS011;60221;45.696;16.076;2024-03-06T06:50:02;25.60;;;11.20;;
72286;SDS011;60221;45.696;16.076;2024-03-06T06:52:33;23.70;;;10.60;;
72286;SDS011;60221;45.696;16.076;2024-03-06T06:55:01;23.10;;;11.30;;
72286;SDS011;60221;45.696;16.076;2024-03-06T06:57:29;28.20;;;10.80;;
72286;SDS011;60221;45.696;16.076;2024-03-06T06:59:57;24.50;;;10.20;;
72286;SDS011;60221;45.696;16.076;2024-03-06T07:02:24;22.60;;;10.30;;
72286;SDS011;60221;45.696;16.076;2024-03-06T07:04:52;18.60;;;10.20;;
72286;SDS011;60221;45.696;16.076;2024-03-06T07:07:20;22.40;;;10.70;;
72286;SDS011;60221;45.696;16.076;2024-03-06T07:09:47;21.80;;;10.20;;
72286;SDS011;60221;45.696;16.076;2024-03-06T07:12:14;18.30;;;9.00;;
72286;SDS011;60221;45.696;16.076;2024-03-06T07:14:41;22.30;;;11.30;;
72286;SDS011;60221;45.696;16.076;2024-03-06T07:17:08;22.60;;;10.20;;
72286;SDS011;60221;45.696;16.076;2024-03-06T07:19:36;20.20;;;9.80;;
72286;SDS011;60221;45.696;16.076;2024-03-06T07:22:03;21.50;;;9.60;;
72286;SDS011;60221;45.696;16.076;2024-03-06T07:24:30;19.70;;;9.90;;
72286;SDS011;60221;45.696;16.076;2024-03-06T07:26:57;20.70;;;10.20;;
72286;SDS011;60221;45.696;16.076;2024-03-06T07:29:24;20.40;;;10.40;;
72286;SDS011;60221;45.696;16.076;2024-03-06T07:31:51;21.20;;;9.50;;
72286;SDS011;60221;45.696;16.076;2024-03-06T07:34:18;25.80;;;10.80;;
72286;SDS011;60221;45.696;16.076;2024-03-06T07:36:45;23.20;;;10.40;;
72286;SDS011;60221;45.696;16.076;2024-03-06T07:39:15;21.90;;;9.70;;
72286;SDS011;60221;45.696;16.076;2024-03-06T07:41:42;21.10;;;10.20;;
72286;SDS011;60221;45.696;16.076;2024-03-06T07:44:10;20.20;;;10.00;;
72286;SDS011;60221;45.696;16.076;2024-03-06T07:46:37;23.60;;;10.90;;
72286;SDS011;60221;45.696;16.076;2024-03-06T07:49:04;19.90;;;10.20;;
72286;SDS011;60221;45.696;16.076;2024-03-06T07:51:32;22.50;;;10.40;;
72286;SDS011;60221;45.696;16.076;2024-03-06T07:53:59;23.40;;;10.80;;
72286;SDS011;60221;45.696;16.076;2024-03-06T07:56:27;24.90;;;11.30;;
72286;SDS011;60221;45.696;16.076;2024-03-06T07:58:55;25.60;;;11.80;;
72286;SDS011;60221;45.696;16.076;2024-03-06T08:01:23;23.90;;;11.70;;
72286;SDS011;60221;45.696;16.076;2024-03-06T08:03:50;23.80;;;10.80;;
72286;SDS011;60221;45.696;16.076;2024-03-06T08:06:18;21.70;;;10.80;;
72286;SDS011;60221;45.696;16.076;2024-03-06T08:08:45;21.70;;;11.00;;
72286;SDS011;60221;45.696;16.076;2024-03-06T08:11:15;21.80;;;10.60;;
72286;SDS011;60221;45.696;16.076;2024-03-06T08:13:43;24.90;;;11.50;;
72286;SDS011;60221;45.696;16.076;2024-03-06T08:16:10;21.50;;;11.50;;
72286;SDS011;60221;45.696;16.076;2024-03-06T08:18:37;23.80;;;11.70;;
72286;SDS011;60221;45.696;16.076;2024-03-06T08:21:05;23.00;;;10.80;;
72286;SDS011;60221;45.696;16.076;2024-03-06T08:23:33;20.70;;;10.80;;
72286;SDS011;60221;45.696;16.076;2024-03-06T08:26:00;22.50;;;10.90;;
72286;SDS011;60221;45.696;16.076;2024-03-06T08:28:27;23.10;;;11.50;;
72286;SDS011;60221;45.696;16.076;2024-03-06T08:30:54;21.90;;;10.60;;
72286;SDS011;60221;45.696;16.076;2024-03-06T08:33:22;21.00;;;12.00;;
72286;SDS011;60221;45.696;16.076;2024-03-06T08:35:50;20.10;;;10.10;;
72286;SDS011;60221;45.696;16.076;2024-03-06T08:38:17;21.60;;;10.50;;
72286;SDS011;60221;45.696;16.076;2024-03-06T08:40:44;20.60;;;9.60;;
72286;SDS011;60221;45.696;16.076;2024-03-06T08:43:15;20.40;;;10.70;;
72286;SDS011;60221;45.696;16.076;2024-03-06T08:45:43;21.10;;;10.40;;
72286;SDS011;60221;45.696;16.076;2024-03-06T08:48:10;22.50;;;10.60;;
72286;SDS011;60221;45.696;16.076;2024-03-06T08:50:38;23.20;;;10.20;;
72286;SDS011;60221;45.696;16.076;2024-03-06T08:53:06;22.20;;;11.20;;
72286;SDS011;60221;45.696;16.076;2024-03-06T08:55:34;18.30;;;10.20;;
72286;SDS011;60221;45.696;16.076;2024-03-06T08:58:01;18.10;;;10.00;;
72286;SDS011;60221;45.696;16.076;2024-03-06T09:00:28;18.90;;;9.30;;
72286;SDS011;60221;45.696;16.076;2024-03-06T09:02:55;20.20;;;8.80;;
72286;SDS011;60221;45.696;16.076;2024-03-06T09:05:22;23.70;;;9.80;;
72286;SDS011;60221;45.696;16.076;2024-03-06T09:07:50;19.20;;;9.50;;
72286;SDS011;60221;45.696;16.076;2024-03-06T09:10:17;19.20;;;10.00;;
72286;SDS011;60221;45.696;16.076;2024-03-06T09:12:46;20.60;;;10.40;;
72286;SDS011;60221;45.696;16.076;2024-03-06T09:15:14;20.30;;;9.90;;
72286;SDS011;60221;45.696;16.076;2024-03-06T09:17:41;19.60;;;10.10;;
72286;SDS011;60221;45.696;16.076;2024-03-06T09:20:09;21.80;;;10.40;;
72286;SDS011;60221;45.696;16.076;2024-03-06T09:22:39;22.10;;;11.00;;
72286;SDS011;60221;45.696;16.076;2024-03-06T09:25:12;20.50;;;10.40;;
72286;SDS011;60221;45.696;16.076;2024-03-06T09:27:42;20.70;;;11.40;;
72286;SDS011;60221;45.696;16.076;2024-03-06T09:30:10;19.50;;;10.40;;
72286;SDS011;60221;45.696;16.076;2024-03-06T09:32:40;20.40;;;10.50;;
72286;SDS011;60221;45.696;16.076;2024-03-06T09:35:09;22.60;;;11.10;;
72286;SDS011;60221;45.696;16.076;2024-03-06T09:37:36;19.60;;;10.20;;
72286;SDS011;60221;45.696;16.076;2024-03-06T09:40:03;20.80;;;10.60;;
72286;SDS011;60221;45.696;16.076;2024-03-06T09:42:30;20.30;;;10.00;;
72286;SDS011;60221;45.696;16.076;2024-03-06T09:44:58;22.70;;;11.30;;
72286;SDS011;60221;45.696;16.076;2024-03-06T09:47:25;18.20;;;10.00;;
72286;SDS011;60221;45.696;16.076;2024-03-06T09:49:55;20.10;;;10.90;;
72286;SDS011;60221;45.696;16.076;2024-03-06T09:52:23;18.50;;;10.80;;
72286;SDS011;60221;45.696;16.076;2024-03-06T09:54:56;18.60;;;10.30;;
72286;SDS011;60221;45.696;16.076;2024-03-06T09:57:24;23.10;;;11.90;;
72286;SDS011;60221;45.696;16.076;2024-03-06T09:59:51;20.90;;;10.70;;
72286;SDS011;60221;45.696;16.076;2024-03-06T10:04:52;21.80;;;10.90;;
72286;SDS011;60221;45.696;16.076;2024-03-06T10:07:19;22.00;;;11.90;;
72286;SDS011;60221;45.696;16.076;2024-03-06T10:09:47;19.80;;;10.80;;
72286;SDS011;60221;45.696;16.076;2024-03-06T10:12:17;21.40;;;10.40;;
72286;SDS011;60221;45.696;16.076;2024-03-06T10:14:51;22.70;;;12.00;;
72286;SDS011;60221;45.696;16.076;2024-03-06T10:17:20;22.20;;;11.30;;
72286;SDS011;60221;45.696;16.076;2024-03-06T10:19:50;20.30;;;10.40;;
72286;SDS011;60221;45.696;16.076;2024-03-06T10:22:22;19.40;;;9.80;;
72286;SDS011;60221;45.696;16.076;2024-03-06T10:24:55;20.50;;;10.30;;
72286;SDS011;60221;45.696;16.076;2024-03-06T10:27:25;19.70;;;9.30;;
72286;SDS011;60221;45.696;16.076;2024-03-06T10:30:03;18.50;;;10.20;;
72286;SDS011;60221;45.696;16.076;2024-03-06T10:32:32;21.60;;;11.40;;
72286;SDS011;60221;45.696;16.076;2024-03-06T10:35:00;23.80;;;11.60;;
72286;SDS011;60221;45.696;16.076;2024-03-06T10:37:28;19.70;;;10.20;;
72286;SDS011;60221;45.696;16.076;2024-03-06T10:39:55;22.30;;;10.30;;
72286;SDS011;60221;45.696;16.076;2024-03-06T10:42:26;18.80;;;10.70;;
72286;SDS011;60221;45.696;16.076;2024-03-06T10:44:54;23.50;;;12.30;;
72286;SDS011;60221;45.696;16.076;2024-03-06T10:47:22;19.70;;;10.60;;
72286;SDS011;60221;45.696;16.076;2024-03-06T10:49:50;18.30;;;9.50;;
72286;SDS011;60221;45.696;16.076;2024-03-06T10:52:17;19.50;;;9.60;;
72286;SDS011;60221;45.696;16.076;2024-03-06T10:54:48;20.40;;;10.60;;
72286;SDS011;60221;45.696;16.076;2024-03-06T10:57:15;18.80;;;10.20;;
72286;SDS011;60221;45.696;16.076;2024-03-06T10:59:42;22.00;;;10.20;;
72286;SDS011;60221;45.696;16.076;2024-03-06T11:02:10;20.70;;;10.70;;
72286;SDS011;60221;45.696;16.076;2024-03-06T11:04:40;17.70;;;9.20;;
72286;SDS011;60221;45.696;16.076;2024-03-06T11:07:08;18.40;;;9.90;;
72286;SDS011;60221;45.696;16.076;2024-03-06T11:09:40;18.50;;;9.50;;
72286;SDS011;60221;45.696;16.076;2024-03-06T11:12:07;19.50;;;9.30;;
72286;SDS011;60221;45.696;16.076;2024-03-06T11:14:38;19.70;;;9.50;;
72286;SDS011;60221;45.696;16.076;2024-03-06T11:17:07;19.70;;;9.50;;
72286;SDS011;60221;45.696;16.076;2024-03-06T11:28:10;21.50;;;10.20;;
72286;SDS011;60221;45.696;16.076;2024-03-06T11:30:46;19.10;;;9.80;;
72286;SDS011;60221;45.696;16.076;2024-03-06T11:33:17;21.60;;;10.00;;
72286;SDS011;60221;45.696;16.076;2024-03-06T11:38:31;19.70;;;10.90;;
72286;SDS011;60221;45.696;16.076;2024-03-06T11:40:58;17.60;;;9.50;;
72286;SDS011;60221;45.696;16.076;2024-03-06T11:43:25;19.90;;;11.40;;
72286;SDS011;60221;45.696;16.076;2024-03-06T11:45:54;19.20;;;10.40;;
72286;SDS011;60221;45.696;16.076;2024-03-06T11:48:34;21.30;;;10.60;;
72286;SDS011;60221;45.696;16.076;2024-03-06T11:51:01;20.30;;;9.50;;
72286;SDS011;60221;45.696;16.076;2024-03-06T11:53:29;20.30;;;9.30;;
72286;SDS011;60221;45.696;16.076;2024-03-06T11:55:57;20.20;;;9.80;;
72286;SDS011;60221;45.696;16.076;2024-03-06T11:58:24;20.50;;;9.20;;
72286;SDS011;60221;45.696;16.076;2024-03-06T12:00:51;19.10;;;9.90;;
72286;SDS011;60221;45.696;16.076;2024-03-06T12:03:19;17.30;;;9.20;;
72286;SDS011;60221;45.696;16.076;2024-03-06T12:05:49;20.20;;;9.20;;
72286;SDS011;60221;45.696;16.076;2024-03-06T12:08:17;19.20;;;9.40;;
72286;SDS011;60221;45.696;16.076;2024-03-06T12:10:45;19.20;;;9.20;;
72286;SDS011;60221;45.696;16.076;2024-03-06T12:13:12;17.60;;;9.80;;
72286;SDS011;60221;45.696;16.076;2024-03-06T12:15:42;18.70;;;9.30;;
72286;SDS011;60221;45.696;16.076;2024-03-06T12:18:09;19.30;;;10.10;;
72286;SDS011;60221;45.696;16.076;2024-03-06T12:20:41;21.80;;;11.10;;
72286;SDS011;60221;45.696;16.076;2024-03-06T12:23:08;21.30;;;10.60;;
72286;SDS011;60221;45.696;16.076;2024-03-06T12:25:35;18.60;;;9.30;;
72286;SDS011;60221;45.696;16.076;2024-03-06T12:28:07;21.50;;;10.10;;
72286;SDS011;60221;45.696;16.076;2024-03-06T12:30:43;21.50;;;10.40;;
72286;SDS011;60221;45.696;16.076;2024-03-06T12:33:15;19.70;;;9.90;;
72286;SDS011;60221;45.696;16.076;2024-03-06T12:35:43;22.20;;;9.50;;
72286;SDS011;60221;45.696;16.076;2024-03-06T12:38:16;20.20;;;9.60;;
72286;SDS011;60221;45.696;16.076;2024-03-06T12:40:44;20.10;;;9.40;;
72286;SDS011;60221;45.696;16.076;2024-03-06T12:43:11;17.70;;;8.40;;
72286;SDS011;60221;45.696;16.076;2024-03-06T12:45:38;19.00;;;9.10;;
72286;SDS011;60221;45.696;16.076;2024-03-06T12:48:06;19.50;;;9.70;;
72286;SDS011;60221;45.696;16.076;2024-03-06T12:50:33;19.70;;;10.20;;
72286;SDS011;60221;45.696;16.076;2024-03-06T12:53:01;18.70;;;9.00;;
72286;SDS011;60221;45.696;16.076;2024-03-06T12:55:31;21.60;;;10.00;;
72286;SDS011;60221;45.696;16.076;2024-03-06T12:57:58;21.70;;;9.80;;
72286;SDS011;60221;45.696;16.076;2024-03-06T13:00:26;17.80;;;9.20;;
72286;SDS011;60221;45.696;16.076;2024-03-06T13:02:53;18.80;;;9.80;;
72286;SDS011;60221;45.696;16.076;2024-03-06T13:05:20;20.30;;;9.90;;
72286;SDS011;60221;45.696;16.076;2024-03-06T13:07:47;20.50;;;10.50;;
72286;SDS011;60221;45.696;16.076;2024-03-06T13:10:14;17.70;;;9.60;;
72286;SDS011;60221;45.696;16.076;2024-03-06T13:12:41;20.10;;;9.90;;
72286;SDS011;60221;45.696;16.076;2024-03-06T13:15:09;19.90;;;8.90;;
72286;SDS011;60221;45.696;16.076;2024-03-06T13:17:36;20.00;;;10.10;;
72286;SDS011;60221;45.696;16.076;2024-03-06T13:20:04;19.60;;;10.50;;
72286;SDS011;60221;45.696;16.076;2024-03-06T13:22:31;20.00;;;10.70;;
72286;SDS011;60221;45.696;16.076;2024-03-06T13:24:59;21.70;;;10.80;;
72286;SDS011;60221;45.696;16.076;2024-03-06T13:27:26;21.40;;;10.60;;
72286;SDS011;60221;45.696;16.076;2024-03-06T13:29:53;18.60;;;9.60;;
72286;SDS011;60221;45.696;16.076;2024-03-06T13:32:20;18.20;;;8.90;;
72286;SDS011;60221;45.696;16.076;2024-03-06T13:34:48;18.90;;;9.50;;
72286;SDS011;60221;45.696;16.076;2024-03-06T13:37:16;17.10;;;8.10;;
72286;SDS011;60221;45.696;16.076;2024-03-06T13:39:43;17.00;;;9.20;;
72286;SDS011;60221;45.696;16.076;2024-03-06T13:42:12;16.80;;;9.20;;
72286;SDS011;60221;45.696;16.076;2024-03-06T13:44:39;15.30;;;8.10;;
72286;SDS011;60221;45.696;16.076;2024-03-06T13:47:06;18.50;;;8.50;;
72286;SDS011;60221;45.696;16.076;2024-03-06T13:49:36;18.60;;;9.30;;
72286;SDS011;60221;45.696;16.076;2024-03-06T13:52:03;16.50;;;8.70;;
72286;SDS011;60221;45.696;16.076;2024-03-06T13:54:32;17.10;;;8.70;;
72286;SDS011;60221;45.696;16.076;2024-03-06T13:57:00;18.80;;;9.40;;
72286;SDS011;60221;45.696;16.076;2024-03-06T13:59:30;16.00;;;7.90;;
72286;SDS011;60221;45.696;16.076;2024-03-06T14:01:58;14.50;;;7.20;;
72286;SDS011;60221;45.696;16.076;2024-03-06T14:04:29;17.30;;;8.30;;
72286;SDS011;60221;45.696;16.076;2024-03-06T14:06:57;15.70;;;7.00;;
72286;SDS011;60221;45.696;16.076;2024-03-06T14:09:25;16.70;;;7.90;;
72286;SDS011;60221;45.696;16.076;2024-03-06T14:11:53;18.20;;;8.80;;
72286;SDS011;60221;45.696;16.076;2024-03-06T14:14:21;17.10;;;8.60;;
72286;SDS011;60221;45.696;16.076;2024-03-06T14:16:48;25.60;;;11.40;;
72286;SDS011;60221;45.696;16.076;2024-03-06T14:19:16;15.80;;;7.80;;
72286;SDS011;60221;45.696;16.076;2024-03-06T14:21:43;16.00;;;7.90;;
72286;SDS011;60221;45.696;16.076;2024-03-06T14:24:10;17.90;;;9.60;;
72286;SDS011;60221;45.696;16.076;2024-03-06T14:26:38;20.10;;;8.30;;
72286;SDS011;60221;45.696;16.076;2024-03-06T14:29:05;19.10;;;8.80;;
72286;SDS011;60221;45.696;16.076;2024-03-06T14:31:34;19.60;;;8.60;;
72286;SDS011;60221;45.696;16.076;2024-03-06T14:34:01;19.00;;;8.90;;
72286;SDS011;60221;45.696;16.076;2024-03-06T14:36:32;18.30;;;9.10;;